Seafrance Rodin — FOBQ — position and weather

sailwx.info

Track history (hours):
 
Tides and Currents Weather Stations Pressure Air Temp Water Temp Dewpoint Dewpoint Depression Visibility Wind Speed Wind Dir Waves Ship Positions

Seafrance Rodin

Operator: SeaFrance

Last reported at 2020-Apr-02 21:00 UTC. Time now 2020-Apr-02 21:09 UTC.
Position N 50°58' E 001°51'.

Length 185 m; draft 5.8 m.

Type: Ship (hazmat cat C). MMSI: 227022800.

Date/timePositionNaut miles runAvg speedWind from/ knotsBaromVisibWave heightAir tempDewpointWater temp
2020-Apr-02 21:00N 50°58' E 001°51'9 6.2
2020-Apr-02 19:30N 51°00' E 001°37'917.6
2020-Apr-02 19:00N 51°05' E 001°25'4 7.6
2020-Apr-02 18:29N 51°07' E 001°20'20 6.9
2020-Apr-02 15:30N 50°58' E 001°49'2010.0
2020-Apr-02 13:30N 51°07' E 001°21'2114.1
2020-Apr-02 12:01N 50°58' E 001°51'0 0.0
2020-Apr-02 11:01N 50°58' E 001°51'3 5.7
2020-Apr-02 10:31N 50°58' E 001°47'1919.1
2020-Apr-02 09:30N 51°07' E 001°20'11 7.3
2020-Apr-02 08:01N 51°02' E 001°36'816.4
2020-Apr-02 07:31N 50°58' E 001°47'8 4.1
2020-Apr-02 05:31N 51°01' E 001°34'8 2.8
2020-Apr-02 02:31N 50°58' E 001°47'3 5.1
2020-Apr-02 02:00N 50°58' E 001°51'22 7.2
2020-Apr-01 23:00N 51°07' E 001°20'5 9.5
2020-Apr-01 22:30N 51°06' E 001°27'1717.0
2020-Apr-01 21:30N 50°58' E 001°51'0 0.0
2020-Apr-01 21:00N 50°58' E 001°51'22 8.5
2020-Apr-01 18:27N 51°07' E 001°20'0 0.1
2020-Apr-01 17:59N 51°07' E 001°20'1615.9
2020-Apr-01 17:00N 50°59' E 001°42'612.3
2020-Apr-01 16:31N 50°58' E 001°51'7 1.1
2020-Apr-01 10:31N 50°58' E 001°41'6 2.3
2020-Apr-01 08:00N 51°03' E 001°36'816.4
2020-Apr-01 07:30N 50°58' E 001°46'9 1.0
2020-Mar-31 22:00N 51°04' E 001°35'1211.8
2020-Mar-31 21:00N 50°58' E 001°51'0 0.0
2020-Mar-31 20:30N 50°58' E 001°51'22 8.6
2020-Mar-31 18:00N 51°07' E 001°20'2214.4
2020-Mar-31 16:30N 50°58' E 001°51'0 0.0
2020-Mar-31 16:00N 50°58' E 001°51'0 0.0
2020-Mar-31 11:31N 50°58' E 001°51'0 0.3
2020-Mar-31 11:01N 50°58' E 001°51'1514.9
2020-Mar-31 10:00N 51°02' E 001°28'713.7
2020-Mar-31 09:29N 51°07' E 001°20'1 0.6
2020-Mar-31 08:30N 51°07' E 001°21'1817.8
2020-Mar-31 07:31N 50°58' E 001°45'4 3.8
2020-Mar-31 06:30N 50°58' E 001°51'2114.2
2020-Mar-31 05:00N 51°07' E 001°21'0 0.7
2020-Mar-31 04:29N 51°07' E 001°20'1212.6
2020-Mar-31 03:30N 51°01' E 001°37'9 3.8
2020-Mar-31 01:00N 50°58' E 001°51'0 0.0
2020-Mar-30 23:30N 50°58' E 001°51'0 0.0
2020-Mar-30 21:30N 50°58' E 001°51'0 0.0
2020-Mar-30 21:00N 50°58' E 001°51'16 4.5
2020-Mar-30 17:30N 51°05' E 001°28'1615.8
2020-Mar-30 16:31N 50°58' E 001°51'15 7.6
2020-Mar-30 14:31N 51°04' E 001°29'612.6
2020-Mar-30 14:00N 51°07' E 001°20'15 7.3
2020-Mar-30 12:01N 50°60' E 001°40'2 1.5
2020-Mar-30 10:30N 50°58' E 001°41'14 6.8
2020-Mar-30 08:31N 51°07' E 001°25'917.5
2020-Mar-30 08:01N 51°02' E 001°36'6 3.2
2020-Mar-30 06:01N 50°58' E 001°44'714.7
2020-Mar-30 05:30N 51°01' E 001°34'1110.6
2020-Mar-30 04:30N 51°07' E 001°20'22 8.7
2020-Mar-30 02:00N 50°58' E 001°51'0 0.0
2020-Mar-30 01:31N 50°58' E 001°51'22 7.2
2020-Mar-29 22:30N 51°07' E 001°20'0 0.0
2020-Mar-29 21:30N 51°07' E 001°20'0 0.0
2020-Mar-29 20:30N 51°07' E 001°20'0 0.0
2020-Mar-29 19:30N 51°07' E 001°20'4 7.5
2020-Mar-29 19:01N 51°07' E 001°26'9 9.2
2020-Mar-29 18:01N 51°01' E 001°37'714.7
2020-Mar-29 17:31N 50°58' E 001°48'1 1.4
2020-Mar-29 16:31N 50°58' E 001°50'16 8.1
2020-Mar-29 14:31N 51°04' E 001°27'5 5.0
2020-Mar-29 13:30N 51°08' E 001°20'2 4.5
2020-Mar-29 13:01N 51°07' E 001°24'714.5
2020-Mar-29 12:31N 51°02' E 001°32'1312.8
2020-Mar-29 11:30N 50°58' E 001°52'0 0.0
2020-Mar-29 09:00N 50°58' E 001°52'0 0.0
2020-Mar-29 03:30N 50°58' E 001°52'0 0.0
2020-Mar-29 02:30N 50°58' E 001°52'22 8.8
2020-Mar-29 00:00N 51°07' E 001°20'612.4
2020-Mar-28 23:30N 51°05' E 001°30'12 4.8
2020-Mar-28 21:01N 50°58' E 001°44'1811.9
2020-Mar-28 19:30N 51°07' E 001°20'0 0.0
2020-Mar-28 15:20N 51°08' E 001°20'22 7.6
2020-Mar-28 12:30N 50°58' E 001°51'0 0.0
2020-Mar-28 12:00N 50°58' E 001°51'510.6
2020-Mar-28 11:31N 50°58' E 001°43'3 0.9
2020-Mar-28 08:30N 50°58' E 001°47'8 4.2
2020-Mar-28 06:31N 51°02' E 001°35'816.3
2020-Mar-28 06:00N 51°06' E 001°24'19 6.3
2020-Mar-28 03:00N 50°58' E 001°51'0 0.0
2020-Mar-28 02:30N 50°58' E 001°51'1 1.6
2020-Mar-28 02:00N 50°58' E 001°50'1616.1
2020-Mar-28 01:01N 51°04' E 001°26'15 6.0
2020-Mar-27 22:30N 50°58' E 001°48'2 2.1
2020-Mar-27 21:30N 50°58' E 001°51'0 0.0
2020-Mar-27 17:01N 50°58' E 001°51'4 8.4
2020-Mar-27 16:31N 50°58' E 001°45'1020.0
2020-Mar-27 16:00N 51°03' E 001°31'8 7.8
2020-Mar-27 14:59N 51°07' E 001°20'2013.5
2020-Mar-27 13:30N 50°58' E 001°48'2 1.8
2020-Mar-27 12:30N 50°58' E 001°51'0 0.4
2020-Mar-27 12:00N 50°58' E 001°51'2114.2
2020-Mar-27 10:30N 51°07' E 001°20'0 0.3
2020-Mar-27 10:01N 51°07' E 001°20'2210.8
2020-Mar-27 08:00N 50°58' E 001°51'20 9.8
2020-Mar-27 06:00N 51°06' E 001°23'16 6.5
2020-Mar-27 03:30N 50°58' E 001°45'3 0.5
2020-Mar-26 21:31N 50°58' E 001°50'816.5
2020-Mar-26 21:00N 50°60' E 001°37'9 3.1
2020-Mar-26 18:01N 50°58' E 001°51'0 0.0
2020-Mar-26 17:31N 50°58' E 001°51'22 8.6
2020-Mar-26 15:00N 51°08' E 001°20'2114.3
2020-Mar-26 13:31N 50°58' E 001°51'14 5.6
2020-Mar-26 11:00N 51°03' E 001°30'8 7.6
2020-Mar-26 10:00N 51°08' E 001°20'2 4.0
2020-Mar-26 09:30N 51°07' E 001°23'2013.1
2020-Mar-26 08:01N 50°58' E 001°51'0 0.0
2020-Mar-26 07:30N 50°58' E 001°51'5 9.0
2020-Mar-26 07:00N 50°58' E 001°44'714.8
2020-Mar-26 06:31N 51°00' E 001°33'917.2
2020-Mar-26 06:01N 51°06' E 001°23'2 4.3
2020-Mar-26 05:30N 51°07' E 001°20'3 2.7
2020-Mar-26 04:31N 51°07' E 001°24'1716.5
2020-Mar-26 03:30N 50°58' E 001°46'4 1.0
2020-Mar-25 23:00N 50°60' E 001°40'9 3.8
2020-Mar-25 20:30N 51°04' E 001°27'5 1.1
2020-Mar-25 15:30N 51°07' E 001°20'2110.4
2020-Mar-25 13:30N 50°58' E 001°50'1 2.0
2020-Mar-25 13:00N 50°58' E 001°51'22 8.6
2020-Mar-25 10:29N 51°07' E 001°20'2110.6
2020-Mar-25 08:31N 50°58' E 001°50'1 1.8
2020-Mar-25 08:01N 50°58' E 001°51'22 8.6
2020-Mar-25 05:29N 51°07' E 001°20'11 2.8
2020-Mar-25 01:31N 51°00' E 001°34'918.1
2020-Mar-25 01:00N 51°06' E 001°22'2 4.2
2020-Mar-25 00:30N 51°07' E 001°20'13 8.8
2020-Mar-24 23:01N 51°02' E 001°39'7 4.8
2020-Mar-24 21:30N 50°58' E 001°49'1912.6
2020-Mar-24 20:00N 51°06' E 001°22'1 3.0
2020-Mar-24 19:30N 51°07' E 001°20'0 0.1
2020-Mar-24 19:00N 51°07' E 001°20'2214.4
2020-Mar-24 17:31N 50°58' E 001°51'0 0.0
2020-Mar-24 17:01N 50°58' E 001°51'2113.6
2020-Mar-24 15:30N 51°07' E 001°22'7 5.0
2020-Mar-24 14:00N 51°04' E 001°33'1020.9
2020-Mar-24 13:30N 50°58' E 001°46'3 6.1
2020-Mar-24 13:00N 50°58' E 001°51'22 7.2
2020-Mar-24 09:59N 51°07' E 001°20'1913.2
2020-Mar-24 08:31N 50°58' E 001°47'2 4.8
2020-Mar-24 08:00N 50°58' E 001°51'0 0.0
2020-Mar-24 07:30N 50°58' E 001°51'2210.8
2020-Mar-24 05:30N 51°07' E 001°20'3 3.5
2020-Mar-24 04:30N 51°07' E 001°26'11 3.7
2020-Mar-24 01:30N 50°59' E 001°39'1413.6
2020-Mar-24 00:27N 51°07' E 001°20'5 5.7
2020-Mar-23 23:31N 51°06' E 001°28'13 5.2
2020-Mar-23 21:00N 50°58' E 001°44'  
Track history (hours):
 
Tides and Currents Weather Stations Pressure Air Temp Water Temp Dewpoint Dewpoint Depression Visibility Wind Speed Wind Dir Waves Ship Positions

Seafrance Rodin

Operator: SeaFrance

Last reported at 2020-Apr-02 21:00 UTC. Time now 2020-Apr-02 21:09 UTC.
Position N 50°58' E 001°51'.

Length 185 m; draft 5.8 m.

Type: Ship (hazmat cat C). MMSI: 227022800.

Date/timePositionNaut miles runAvg speedWind from/ knotsBaromVisibWave heightAir tempDewpointWater temp
2020-Apr-02 21:00N 50°58' E 001°51'9 6.2
2020-Apr-02 19:30N 51°00' E 001°37'917.6
2020-Apr-02 19:00N 51°05' E 001°25'4 7.6
2020-Apr-02 18:29N 51°07' E 001°20'20 6.9
2020-Apr-02 15:30N 50°58' E 001°49'2010.0
2020-Apr-02 13:30N 51°07' E 001°21'2114.1
2020-Apr-02 12:01N 50°58' E 001°51'0 0.0
2020-Apr-02 11:01N 50°58' E 001°51'3 5.7
2020-Apr-02 10:31N 50°58' E 001°47'1919.1
2020-Apr-02 09:30N 51°07' E 001°20'11 7.3
2020-Apr-02 08:01N 51°02' E 001°36'816.4
2020-Apr-02 07:31N 50°58' E 001°47'8 4.1
2020-Apr-02 05:31N 51°01' E 001°34'8 2.8
2020-Apr-02 02:31N 50°58' E 001°47'3 5.1
2020-Apr-02 02:00N 50°58' E 001°51'22 7.2
2020-Apr-01 23:00N 51°07' E 001°20'5 9.5
2020-Apr-01 22:30N 51°06' E 001°27'1717.0
2020-Apr-01 21:30N 50°58' E 001°51'0 0.0
2020-Apr-01 21:00N 50°58' E 001°51'22 8.5
2020-Apr-01 18:27N 51°07' E 001°20'0 0.1
2020-Apr-01 17:59N 51°07' E 001°20'1615.9
2020-Apr-01 17:00N 50°59' E 001°42'612.3
2020-Apr-01 16:31N 50°58' E 001°51'7 1.1
2020-Apr-01 10:31N 50°58' E 001°41'6 2.3
2020-Apr-01 08:00N 51°03' E 001°36'816.4
2020-Apr-01 07:30N 50°58' E 001°46'9 1.0
2020-Mar-31 22:00N 51°04' E 001°35'1211.8
2020-Mar-31 21:00N 50°58' E 001°51'0 0.0
2020-Mar-31 20:30N 50°58' E 001°51'22 8.6
2020-Mar-31 18:00N 51°07' E 001°20'2214.4
2020-Mar-31 16:30N 50°58' E 001°51'0 0.0
2020-Mar-31 16:00N 50°58' E 001°51'0 0.0
2020-Mar-31 11:31N 50°58' E 001°51'0 0.3
2020-Mar-31 11:01N 50°58' E 001°51'1514.9
2020-Mar-31 10:00N 51°02' E 001°28'713.7
2020-Mar-31 09:29N 51°07' E 001°20'1 0.6
2020-Mar-31 08:30N 51°07' E 001°21'1817.8
2020-Mar-31 07:31N 50°58' E 001°45'4 3.8
2020-Mar-31 06:30N 50°58' E 001°51'2114.2
2020-Mar-31 05:00N 51°07' E 001°21'0 0.7
2020-Mar-31 04:29N 51°07' E 001°20'1212.6
2020-Mar-31 03:30N 51°01' E 001°37'9 3.8
2020-Mar-31 01:00N 50°58' E 001°51'0 0.0
2020-Mar-30 23:30N 50°58' E 001°51'0 0.0
2020-Mar-30 21:30N 50°58' E 001°51'0 0.0
2020-Mar-30 21:00N 50°58' E 001°51'16 4.5
2020-Mar-30 17:30N 51°05' E 001°28'1615.8
2020-Mar-30 16:31N 50°58' E 001°51'15 7.6
2020-Mar-30 14:31N 51°04' E 001°29'612.6
2020-Mar-30 14:00N 51°07' E 001°20'15 7.3
2020-Mar-30 12:01N 50°60' E 001°40'2 1.5
2020-Mar-30 10:30N 50°58' E 001°41'14 6.8
2020-Mar-30 08:31N 51°07' E 001°25'917.5
2020-Mar-30 08:01N 51°02' E 001°36'6 3.2
2020-Mar-30 06:01N 50°58' E 001°44'714.7
2020-Mar-30 05:30N 51°01' E 001°34'1110.6
2020-Mar-30 04:30N 51°07' E 001°20'22 8.7
2020-Mar-30 02:00N 50°58' E 001°51'0 0.0
2020-Mar-30 01:31N 50°58' E 001°51'22 7.2
2020-Mar-29 22:30N 51°07' E 001°20'0 0.0
2020-Mar-29 21:30N 51°07' E 001°20'0 0.0
2020-Mar-29 20:30N 51°07' E 001°20'0 0.0
2020-Mar-29 19:30N 51°07' E 001°20'4 7.5
2020-Mar-29 19:01N 51°07' E 001°26'9 9.2
2020-Mar-29 18:01N 51°01' E 001°37'714.7
2020-Mar-29 17:31N 50°58' E 001°48'1 1.4
2020-Mar-29 16:31N 50°58' E 001°50'16 8.1
2020-Mar-29 14:31N 51°04' E 001°27'5 5.0
2020-Mar-29 13:30N 51°08' E 001°20'2 4.5
2020-Mar-29 13:01N 51°07' E 001°24'714.5
2020-Mar-29 12:31N 51°02' E 001°32'1312.8
2020-Mar-29 11:30N 50°58' E 001°52'0 0.0
2020-Mar-29 09:00N 50°58' E 001°52'0 0.0
2020-Mar-29 03:30N 50°58' E 001°52'0 0.0
2020-Mar-29 02:30N 50°58' E 001°52'22 8.8
2020-Mar-29 00:00N 51°07' E 001°20'612.4
2020-Mar-28 23:30N 51°05' E 001°30'12 4.8
2020-Mar-28 21:01N 50°58' E 001°44'1811.9
2020-Mar-28 19:30N 51°07' E 001°20'0 0.0
2020-Mar-28 15:20N 51°08' E 001°20'22 7.6
2020-Mar-28 12:30N 50°58' E 001°51'0 0.0
2020-Mar-28 12:00N 50°58' E 001°51'510.6
2020-Mar-28 11:31N 50°58' E 001°43'3 0.9
2020-Mar-28 08:30N 50°58' E 001°47'8 4.2
2020-Mar-28 06:31N 51°02' E 001°35'816.3
2020-Mar-28 06:00N 51°06' E 001°24'19 6.3
2020-Mar-28 03:00N 50°58' E 001°51'0 0.0
2020-Mar-28 02:30N 50°58' E 001°51'1 1.6
2020-Mar-28 02:00N 50°58' E 001°50'1616.1
2020-Mar-28 01:01N 51°04' E 001°26'15 6.0
2020-Mar-27 22:30N 50°58' E 001°48'2 2.1
2020-Mar-27 21:30N 50°58' E 001°51'0 0.0
2020-Mar-27 17:01N 50°58' E 001°51'4 8.4
2020-Mar-27 16:31N 50°58' E 001°45'1020.0
2020-Mar-27 16:00N 51°03' E 001°31'8 7.8
2020-Mar-27 14:59N 51°07' E 001°20'2013.5
2020-Mar-27 13:30N 50°58' E 001°48'2 1.8
2020-Mar-27 12:30N 50°58' E 001°51'0 0.4
2020-Mar-27 12:00N 50°58' E 001°51'2114.2
2020-Mar-27 10:30N 51°07' E 001°20'0 0.3
2020-Mar-27 10:01N 51°07' E 001°20'2210.8
2020-Mar-27 08:00N 50°58' E 001°51'20 9.8
2020-Mar-27 06:00N 51°06' E 001°23'16 6.5
2020-Mar-27 03:30N 50°58' E 001°45'3 0.5
2020-Mar-26 21:31N 50°58' E 001°50'816.5
2020-Mar-26 21:00N 50°60' E 001°37'9 3.1
2020-Mar-26 18:01N 50°58' E 001°51'0 0.0
2020-Mar-26 17:31N 50°58' E 001°51'22 8.6
2020-Mar-26 15:00N 51°08' E 001°20'2114.3
2020-Mar-26 13:31N 50°58' E 001°51'14 5.6
2020-Mar-26 11:00N 51°03' E 001°30'8 7.6
2020-Mar-26 10:00N 51°08' E 001°20'2 4.0
2020-Mar-26 09:30N 51°07' E 001°23'2013.1
2020-Mar-26 08:01N 50°58' E 001°51'0 0.0
2020-Mar-26 07:30N 50°58' E 001°51'5 9.0
2020-Mar-26 07:00N 50°58' E 001°44'714.8
2020-Mar-26 06:31N 51°00' E 001°33'917.2
2020-Mar-26 06:01N 51°06' E 001°23'2 4.3
2020-Mar-26 05:30N 51°07' E 001°20'3 2.7
2020-Mar-26 04:31N 51°07' E 001°24'1716.5
2020-Mar-26 03:30N 50°58' E 001°46'4 1.0
2020-Mar-25 23:00N 50°60' E 001°40'9 3.8
2020-Mar-25 20:30N 51°04' E 001°27'5 1.1
2020-Mar-25 15:30N 51°07' E 001°20'2110.4
2020-Mar-25 13:30N 50°58' E 001°50'1 2.0
2020-Mar-25 13:00N 50°58' E 001°51'22 8.6
2020-Mar-25 10:29N 51°07' E 001°20'2110.6
2020-Mar-25 08:31N 50°58' E 001°50'1 1.8
2020-Mar-25 08:01N 50°58' E 001°51'22 8.6
2020-Mar-25 05:29N 51°07' E 001°20'11 2.8
2020-Mar-25 01:31N 51°00' E 001°34'918.1
2020-Mar-25 01:00N 51°06' E 001°22'2 4.2
2020-Mar-25 00:30N 51°07' E 001°20'13 8.8
2020-Mar-24 23:01N 51°02' E 001°39'7 4.8
2020-Mar-24 21:30N 50°58' E 001°49'1912.6
2020-Mar-24 20:00N 51°06' E 001°22'1 3.0
2020-Mar-24 19:30N 51°07' E 001°20'0 0.1
2020-Mar-24 19:00N 51°07' E 001°20'2214.4
2020-Mar-24 17:31N 50°58' E 001°51'0 0.0
2020-Mar-24 17:01N 50°58' E 001°51'2113.6
2020-Mar-24 15:30N 51°07' E 001°22'7 5.0
2020-Mar-24 14:00N 51°04' E 001°33'1020.9
2020-Mar-24 13:30N 50°58' E 001°46'3 6.1
2020-Mar-24 13:00N 50°58' E 001°51'22 7.2
2020-Mar-24 09:59N 51°07' E 001°20'1913.2
2020-Mar-24 08:31N 50°58' E 001°47'2 4.8
2020-Mar-24 08:00N 50°58' E 001°51'0 0.0
2020-Mar-24 07:30N 50°58' E 001°51'2210.8
2020-Mar-24 05:30N 51°07' E 001°20'3 3.5
2020-Mar-24 04:30N 51°07' E 001°26'11 3.7
2020-Mar-24 01:30N 50°59' E 001°39'1413.6
2020-Mar-24 00:27N 51°07' E 001°20'5 5.7
2020-Mar-23 23:31N 51°06' E 001°28'13 5.2
2020-Mar-23 21:00N 50°58' E 001°44'  

Dump ship's entire track history